Overview Statistics Trail Chart Weather Telemetry Raw packets
 

This is the latest recevied weather packets stored in our database for station/object NUUKSIO. If no packets are shown the sender has not sent any weather packets the latest 10 day(s).

<< 1 2 3 4 5 >>
Time Temp. Humidity Pressure Rain* Wind** Luminosity Snow
1788541486 13.33° C 89% 997.2 hPa 0 mm - - -
1788540286 13.89° C 83% 997.2 hPa 0 mm - - -
1788539086 14.44° C 81% 997.3 hPa 0 mm - - -
1788537888 14.44° C 80% 997.4 hPa 0 mm - - -
1788536686 14.44° C 79% 997.4 hPa 0 mm - - -
1788535276 15° C 77% 997.5 hPa 0 mm - - -
1788534286 15° C 76% 997.6 hPa 0 mm - - -
1788533087 15° C 80% 997.6 hPa 0 mm - - -
1788531886 15° C 75% 997.7 hPa 0 mm - - -
1788530686 15.56° C 70% 997.7 hPa 0 mm - - -
1788529485 16.11° C 69% 997.8 hPa 0 mm - - -
1788528284 15.56° C 62% 997.9 hPa 0 mm - - -
1788526876 15.56° C 68% 997.8 hPa 0 mm - - -
1788525886 15.56° C 67% 997.9 hPa 0 mm - - -
1788524686 15.56° C 73% 998 hPa 0 mm - - -
1788522075 17.78° C 51% 997.7 hPa 0 mm - - -
1788520874 17.78° C 53% 997.8 hPa 0 mm - - -
1788519886 17.78° C 49% 997.9 hPa 0 mm - - -
1788518684 17.22° C 52% 997.9 hPa 0 mm - - -
1788517275 17.22° C 56% 998.1 hPa 0 mm - - -
1788516285 16.67° C 57% 998.3 hPa 0 mm - - -
1788515085 16.67° C 59% 998.4 hPa 0 mm - - -
1788513886 16.11° C 62% 998.5 hPa 0 mm - - -
1788512686 15.56° C 67% 998.7 hPa 0 mm - - -
1788511486 16.11° C 76% 998.7 hPa 0 mm - - -

* Rain latest hour (hover to see other rain measurements)
** Current wind speed in m/s (hover to see current wind gust speed)